Time;durP1;ratioP1;P1;durP2;ratioP2;P2;SDS_P1;SDS_P2;PMS_P1;PMS_P2;Temp;Humidity;BMP_temperature;BMP_pressure;BME280_temperature;BME280_humidity;BME280_pressure;Samples;Min_cycle;Max_cycle;Signal;HPM_P1;HPM_P2
2021/09/23 00:01:39;;;;;;;6.88;4.25;;;;;;;4.40;88.88;91468.59;5032129;28;20025;-87
2021/09/23 00:04:50;;;;;;;7.60;4.70;;;;;;;4.42;90.53;91470.91;5031532;28;20056;-87
2021/09/23 00:06:51;;;;;;;8.73;4.32;;;;;;;4.56;90.71;91469.19;5028472;28;20033;-87
2021/09/23 00:09:16;;;;;;;7.18;4.15;;;;;;;4.54;89.88;91460.94;5032422;28;20366;-87
2021/09/23 00:11:41;;;;;;;6.22;3.97;;;;;;;4.58;90.95;91467.06;5031254;28;20406;-87
2021/09/23 00:14:07;;;;;;;7.22;4.55;;;;;;;4.57;90.31;91462.19;5029755;28;20022;-87
2021/09/23 00:16:32;;;;;;;6.95;4.53;;;;;;;4.51;90.23;91453.75;5012121;28;20030;-87
2021/09/23 00:18:57;;;;;;;12.75;4.55;;;;;;;4.63;88.95;91458.50;5012046;28;20072;-87
2021/09/23 00:21:23;;;;;;;6.95;3.80;;;;;;;4.54;85.57;91445.44;4995399;28;20095;-87
2021/09/23 00:23:50;;;;;;;6.20;3.80;;;;;;;4.38;87.37;91447.47;5011643;28;20026;-87
2021/09/23 00:26:15;;;;;;;5.90;3.75;;;;;;;4.38;87.66;91454.41;5027552;28;20405;-87
2021/09/23 00:28:43;;;;;;;6.47;4.20;;;;;;;4.29;88.44;91446.53;5014899;28;20029;-87
2021/09/23 00:31:08;;;;;;;7.10;3.83;;;;;;;4.27;89.47;91448.59;5015156;28;20032;-87
2021/09/23 00:33:34;;;;;;;6.40;4.53;;;;;;;4.38;90.96;91449.25;5012885;28;20025;-87
2021/09/23 00:35:59;;;;;;;7.63;5.05;;;;;;;4.41;91.99;91443.53;5031301;28;20021;-87
2021/09/23 00:38:25;;;;;;;6.55;4.05;;;;;;;4.28;89.59;91445.00;5030861;28;20029;-86
2021/09/23 00:40:50;;;;;;;9.65;3.83;;;;;;;4.13;88.26;91438.19;4994991;28;20033;-87
2021/09/23 00:43:15;;;;;;;8.05;3.83;;;;;;;4.06;88.80;91435.97;5011617;28;20399;-87
2021/09/23 00:45:41;;;;;;;7.38;3.78;;;;;;;4.03;89.77;91433.16;5011989;28;20029;-87
2021/09/23 00:48:06;;;;;;;7.00;4.13;;;;;;;4.01;88.93;91435.22;4996275;28;20030;-86
2021/09/23 00:50:32;;;;;;;6.10;4.07;;;;;;;3.96;89.41;91435.31;4995446;28;20021;-87
2021/09/23 00:52:57;;;;;;;6.07;3.88;;;;;;;4.06;89.41;91435.16;5012667;28;20022;-87
2021/09/23 00:55:23;;;;;;;9.38;4.65;;;;;;;4.02;89.89;91427.22;5024220;28;20038;-87
2021/09/23 00:57:48;;;;;;;7.85;4.78;;;;;;;4.06;90.30;91437.75;5037448;28;20044;-87
2021/09/23 01:00:15;;;;;;;6.32;4.25;;;;;;;4.08;89.03;91428.69;5021781;28;20085;-87
2021/09/23 01:02:40;;;;;;;6.90;4.43;;;;;;;4.07;89.04;91428.97;5015976;28;20029;-87
2021/09/23 01:05:06;;;;;;;6.40;3.92;;;;;;;4.06;87.67;91417.91;5011721;28;20423;-87
2021/09/23 01:07:31;;;;;;;5.82;3.75;;;;;;;4.03;87.40;91418.44;5018056;28;20368;-87
2021/09/23 01:09:57;;;;;;;5.85;3.75;;;;;;;3.93;88.35;91417.78;5031274;28;20029;-87
2021/09/23 01:12:24;;;;;;;6.43;3.63;;;;;;;3.89;88.38;91404.69;5031130;28;20391;-87
2021/09/23 01:14:49;;;;;;;6.00;3.97;;;;;;;3.94;88.69;91398.69;5027364;28;20486;-87
2021/09/23 01:17:15;;;;;;;8.43;4.13;;;;;;;3.90;88.25;91401.06;5021115;28;20040;-87
2021/09/23 01:19:41;;;;;;;7.85;3.90;;;;;;;3.90;88.89;91395.91;5014250;28;20490;-87
2021/09/23 01:22:07;;;;;;;8.10;3.63;;;;;;;3.65;87.69;91381.47;5030787;28;20399;-87
2021/09/23 01:24:32;;;;;;;7.85;3.80;;;;;;;3.72;87.64;91383.72;5011773;28;20022;-87
2021/09/23 01:27:00;;;;;;;7.35;3.97;;;;;;;3.75;87.68;91386.53;5010879;28;20017;-87
2021/09/23 01:29:25;;;;;;;5.90;3.58;;;;;;;3.68;88.13;91391.25;5011545;28;20032;-87
2021/09/23 01:31:51;;;;;;;5.13;3.17;;;;;;;3.74;88.06;91386.78;4995067;28;20372;-87
2021/09/23 01:34:16;;;;;;;5.82;3.65;;;;;;;3.59;88.19;91377.41;5010378;28;20049;-87
2021/09/23 01:36:42;;;;;;;6.43;3.45;;;;;;;3.60;88.43;91378.94;5011449;28;20026;-87
2021/09/23 01:39:07;;;;;;;6.85;3.88;;;;;;;3.47;87.79;91379.59;5010889;28;20029;-87
2021/09/23 01:41:33;;;;;;;7.35;4.20;;;;;;;3.43;88.15;91374.22;5012097;28;20034;-87
2021/09/23 01:43:58;;;;;;;5.65;3.58;;;;;;;3.45;88.47;91376.50;5010741;28;20026;-87
2021/09/23 01:46:24;;;;;;;7.03;4.25;;;;;;;3.44;88.93;91365.44;5011959;28;20064;-87
2021/09/23 01:48:49;;;;;;;6.63;3.78;;;;;;;3.37;88.83;91359.09;5011670;28;20034;-87
2021/09/23 01:51:14;;;;;;;5.28;3.80;;;;;;;3.49;87.75;91364.63;5010803;28;20028;-87
2021/09/23 01:53:40;;;;;;;7.78;3.47;;;;;;;3.56;88.46;91362.47;4993974;28;20030;-87
2021/09/23 01:56:05;;;;;;;8.38;4.47;;;;;;;3.52;89.11;91354.53;5024809;28;20033;-87
2021/09/23 01:58:31;;;;;;;7.22;3.75;;;;;;;3.51;90.14;91349.66;5020762;28;20060;-87
2021/09/23 02:00:56;;;;;;;5.18;3.33;;;;;;;3.68;88.53;91364.69;5011190;28;20034;-87
2021/09/23 02:03:21;;;;;;;6.85;4.00;;;;;;;3.56;89.15;91357.31;4994516;28;20501;-88
2021/09/23 02:05:47;;;;;;;6.60;3.80;;;;;;;3.44;89.53;91357.72;4995000;28;20030;-87
2021/09/23 02:08:12;;;;;;;8.05;3.58;;;;;;;3.39;88.12;91357.75;5004501;28;20056;-87
2021/09/23 02:10:38;;;;;;;10.55;4.10;;;;;;;3.39;89.77;91357.75;5033913;28;20036;-88
2021/09/23 02:13:03;;;;;;;9.88;3.97;;;;;;;3.49;89.85;91359.47;5034353;28;20029;-87
2021/09/23 02:15:29;;;;;;;6.07;4.00;;;;;;;3.47;89.42;91353.84;5033653;28;20045;-87
2021/09/23 02:17:54;;;;;;;7.95;3.33;;;;;;;3.37;88.61;91354.69;5033919;28;20398;-87
2021/09/23 02:20:19;;;;;;;7.55;3.83;;;;;;;3.31;87.39;91348.81;5033914;28;20071;-87
2021/09/23 02:22:45;;;;;;;5.88;3.75;;;;;;;3.23;89.14;91348.66;5033746;28;20056;-87
2021/09/23 02:25:11;;;;;;;7.25;3.88;;;;;;;3.20;89.86;91355.09;5033677;28;20017;-87
2021/09/23 02:27:36;;;;;;;9.18;4.35;;;;;;;3.50;90.54;91353.28;5033374;28;20031;-86
2021/09/23 02:30:03;;;;;;;6.35;3.50;;;;;;;3.45;90.41;91351.50;5034091;28;20486;-87
2021/09/23 02:32:29;;;;;;;5.00;3.33;;;;;;;3.39;89.20;91356.97;5025452;28;20483;-87
2021/09/23 02:34:56;;;;;;;8.18;3.97;;;;;;;3.32;89.24;91354.72;5013798;28;20033;-87
2021/09/23 02:37:22;;;;;;;8.20;4.00;;;;;;;3.28;90.38;91351.94;4998033;28;20104;-87
2021/09/23 02:39:48;;;;;;;9.18;3.30;;;;;;;3.26;89.15;91343.72;5013833;28;20127;-87
2021/09/23 02:42:13;;;;;;;5.90;3.40;;;;;;;3.21;88.61;91343.75;5014659;28;20030;-87
2021/09/23 02:44:38;;;;;;;6.85;3.70;;;;;;;3.22;89.26;91352.28;5012233;28;20025;-87
2021/09/23 02:47:04;;;;;;;8.15;4.05;;;;;;;3.28;89.64;91346.78;5029683;28;20503;-87
2021/09/23 02:49:29;;;;;;;7.03;3.72;;;;;;;3.19;88.79;91343.28;5029915;28;20423;-87
2021/09/23 02:51:55;;;;;;;6.85;3.70;;;;;;;3.24;88.54;91350.94;4997181;28;20185;-87
2021/09/23 02:54:20;;;;;;;5.95;3.70;;;;;;;3.24;88.32;91343.22;4997000;28;20407;-87
2021/09/23 02:56:46;;;;;;;8.65;3.85;;;;;;;3.42;88.57;91346.13;4997056;28;20026;-87
2021/09/23 02:59:11;;;;;;;8.32;4.13;;;;;;;3.61;89.24;91348.78;4996927;28;20022;-87
2021/09/23 03:01:36;;;;;;;6.13;3.70;;;;;;;3.30;88.94;91349.84;5026637;28;20491;-86
2021/09/23 03:04:02;;;;;;;6.35;3.67;;;;;;;3.28;87.74;91349.34;5015789;28;20379;-87
2021/09/23 03:06:27;;;;;;;5.50;3.60;;;;;;;3.34;86.63;91337.97;5032651;28;20052;-87
2021/09/23 03:08:53;;;;;;;6.22;3.45;;;;;;;3.14;88.02;91345.13;5017455;28;20048;-87
2021/09/23 03:11:18;;;;;;;8.05;4.03;;;;;;;3.12;88.49;91342.81;5012951;28;20049;-87
2021/09/23 03:13:44;;;;;;;6.60;4.07;;;;;;;3.15;89.60;91338.94;5013668;28;20022;-87
2021/09/23 03:16:09;;;;;;;5.03;3.45;;;;;;;3.06;90.94;91338.75;5012833;28;20383;-87
2021/09/23 03:18:35;;;;;;;7.25;3.90;;;;;;;3.08;91.07;91347.75;5013127;28;20032;-87
2021/09/23 03:21:00;;;;;;;7.22;4.13;;;;;;;3.23;91.41;91346.06;5012912;28;20517;-87
2021/09/23 03:23:26;;;;;;;5.75;4.07;;;;;;;3.09;91.80;91338.22;5029281;28;20104;-87
2021/09/23 03:25:51;;;;;;;5.45;3.45;;;;;;;3.09;92.24;91335.63;5012891;28;20034;-86
2021/09/23 03:28:18;;;;;;;5.32;3.65;;;;;;;3.17;91.13;91332.47;5014926;28;20061;-87
2021/09/23 03:30:43;;;;;;;8.45;3.72;;;;;;;3.13;90.47;91323.00;5016018;28;20120;-87
2021/09/23 03:33:09;;;;;;;7.85;3.40;;;;;;;3.18;89.53;91321.13;5032705;28;20048;-87
2021/09/23 03:35:35;;;;;;;7.40;3.40;;;;;;;3.12;88.81;91332.53;5015401;28;20129;-87
2021/09/23 03:38:01;;;;;;;7.13;3.58;;;;;;;2.96;87.97;91334.44;5008706;28;20102;-88
2021/09/23 03:40:26;;;;;;;6.55;3.60;;;;;;;2.91;88.76;91331.16;5013079;23;20014;-86
2021/09/23 03:42:52;;;;;;;8.80;3.85;;;;;;;3.00;87.74;91334.69;5033818;28;20046;-86
2021/09/23 03:45:17;;;;;;;5.95;3.83;;;;;;;2.82;88.51;91338.69;5013841;28;20537;-86
2021/09/23 03:47:43;;;;;;;5.25;3.25;;;;;;;2.91;88.39;91342.22;4998083;28;20022;-86
2021/09/23 03:50:09;;;;;;;5.03;3.28;;;;;;;2.77;88.29;91336.16;5023729;28;20029;-86
2021/09/23 03:52:35;;;;;;;5.05;3.22;;;;;;;2.81;87.59;91332.78;5001300;28;20571;-86
2021/09/23 03:55:00;;;;;;;6.53;3.67;;;;;;;2.63;88.50;91338.59;5000949;28;20021;-86
2021/09/23 03:57:27;;;;;;;7.78;3.28;;;;;;;2.58;89.06;91329.13;4991460;28;20049;-86
2021/09/23 03:59:52;;;;;;;4.97;3.38;;;;;;;2.73;89.48;91325.66;4989038;28;20049;-87
2021/09/23 04:02:18;;;;;;;5.95;3.40;;;;;;;2.68;89.78;91328.25;4997672;28;20037;-87
2021/09/23 04:04:43;;;;;;;5.32;3.60;;;;;;;2.73;89.95;91333.38;5003899;28;20010;-88
2021/09/23 04:07:09;;;;;;;7.10;3.53;;;;;;;2.73;89.83;91330.03;5022054;28;20006;-86
2021/09/23 04:09:34;;;;;;;6.72;3.00;;;;;;;2.70;89.86;91331.34;5022423;28;20009;-90
2021/09/23 04:11:59;;;;;;;7.03;3.17;;;;;;;2.63;90.73;91325.72;4982350;28;20084;-85
2021/09/23 04:14:25;;;;;;;6.22;3.70;;;;;;;2.69;90.61;91321.31;5013706;28;20049;-86
2021/09/23 04:16:51;;;;;;;4.82;3.20;;;;;;;2.82;90.47;91328.41;4980877;28;20088;-86
2021/09/23 04:19:18;;;;;;;6.53;3.50;;;;;;;2.76;90.71;91324.34;5013744;28;20030;-87
2021/09/23 04:21:43;;;;;;;5.18;3.22;;;;;;;2.76;91.42;91324.34;5014472;28;20022;-86
2021/09/23 04:24:08;;;;;;;6.05;3.33;;;;;;;2.74;90.54;91322.03;5014383;28;20539;-86
2021/09/23 04:26:34;;;;;;;6.97;3.90;;;;;;;2.86;89.98;91312.16;5029609;28;20487;-86
2021/09/23 04:28:59;;;;;;;5.88;3.20;;;;;;;2.81;89.79;91307.03;5033272;28;20029;-86
2021/09/23 04:31:25;;;;;;;5.95;3.70;;;;;;;2.80;90.00;91310.66;5034507;28;20422;-86
2021/09/23 04:33:50;;;;;;;6.35;3.33;;;;;;;2.82;90.65;91303.41;5017345;28;20032;-86
2021/09/23 04:36:15;;;;;;;5.38;3.40;;;;;;;2.89;90.63;91297.97;5001007;28;20029;-86
2021/09/23 04:38:41;;;;;;;7.57;3.60;;;;;;;3.03;90.75;91298.09;5001343;28;20044;-86
2021/09/23 04:41:07;;;;;;;9.48;3.70;;;;;;;3.03;90.50;91298.09;5001183;28;20029;-86
2021/09/23 04:43:33;;;;;;;8.82;3.13;;;;;;;2.94;90.65;91299.75;5000384;28;20028;-85
2021/09/23 04:45:58;;;;;;;9.98;3.45;;;;;;;3.05;90.91;91291.63;5016064;28;20028;-87
2021/09/23 04:48:24;;;;;;;12.13;8.57;;;;;;;2.98;91.59;91293.00;5032369;28;20021;-86
2021/09/23 04:50:49;;;;;;;14.32;11.07;;;;;;;2.92;91.89;91288.94;4999707;28;20029;-86
2021/09/23 04:53:14;;;;;;;8.13;5.25;;;;;;;2.83;92.44;91283.63;5015674;28;20028;-86
2021/09/23 04:55:40;;;;;;;16.85;8.90;;;;;;;2.85;92.82;91281.53;5015499;28;20029;-86
2021/09/23 04:58:06;;;;;;;44.25;29.08;;;;;;;2.90;92.57;91283.28;5015669;28;20029;-86
2021/09/23 05:00:31;;;;;;;41.80;25.65;;;;;;;2.94;90.74;91279.13;5015770;28;20029;-86
2021/09/23 05:02:57;;;;;;;41.17;25.00;;;;;;;3.06;89.85;91277.72;5032279;28;20059;-87
2021/09/23 05:05:22;;;;;;;15.85;11.05;;;;;;;3.00;90.99;91271.06;5032182;28;20037;-87
2021/09/23 05:07:48;;;;;;;11.02;6.95;;;;;;;2.92;91.07;91276.06;5032782;28;20501;-87
2021/09/23 05:10:13;;;;;;;10.65;6.55;;;;;;;2.74;90.75;91273.13;5048066;28;20482;-87
2021/09/23 05:12:39;;;;;;;13.82;7.70;;;;;;;2.73;90.14;91271.59;5032996;28;20041;-85
2021/09/23 05:15:04;;;;;;;9.65;6.05;;;;;;;2.79;91.31;91282.59;5032696;28;20025;-86
2021/09/23 05:17:30;;;;;;;10.40;6.15;;;;;;;2.68;89.34;91297.38;5044699;28;20034;-86
2021/09/23 05:19:56;;;;;;;13.25;8.80;;;;;;;2.64;89.44;91304.09;4995687;28;20030;-86
2021/09/23 05:22:26;;;;;;;13.45;8.65;;;;;;;2.55;88.77;91300.56;5040980;28;20067;-88
2021/09/23 05:24:52;;;;;;;12.40;7.45;;;;;;;2.67;88.42;91287.34;5024474;28;20029;-86
2021/09/23 05:27:18;;;;;;;9.07;3.40;;;;;;;2.43;88.03;91277.00;5045993;28;20026;-87
2021/09/23 05:29:43;;;;;;;3.60;2.53;;;;;;;2.50;88.54;91280.78;5022008;28;20009;-87
2021/09/23 05:32:09;;;;;;;5.10;2.90;;;;;;;2.39;89.96;91280.09;5011766;28;20036;-85
2021/09/23 05:34:34;;;;;;;4.70;2.97;;;;;;;2.76;90.59;91273.63;4999337;28;20484;-85
2021/09/23 05:37:00;;;;;;;8.57;2.72;;;;;;;2.56;89.50;91279.72;5016500;28;20076;-85
2021/09/23 05:39:25;;;;;;;5.70;3.50;;;;;;;2.47;88.88;91275.41;4999846;28;20021;-86
2021/09/23 05:41:51;;;;;;;6.63;3.50;;;;;;;2.45;88.57;91273.13;5021111;28;20026;-84
2021/09/23 05:44:23;;;;;;;7.13;3.78;;;;;;;2.42;90.16;91272.88;5003661;28;20020;-86
2021/09/23 05:46:48;;;;;;;5.88;3.20;;;;;;;2.62;90.85;91268.34;5037162;28;20025;-86
2021/09/23 05:49:14;;;;;;;5.38;3.72;;;;;;;2.78;90.64;91261.25;5037922;28;20036;-87
2021/09/23 05:51:40;;;;;;;6.97;3.10;;;;;;;2.75;91.11;91261.78;5018720;28;20036;-85
2021/09/23 05:54:05;;;;;;;5.22;3.38;;;;;;;2.81;91.62;91255.56;5018407;28;20030;-86
2021/09/23 05:56:31;;;;;;;9.02;3.72;;;;;;;2.96;91.78;91256.44;5001100;28;20092;-85
2021/09/23 05:58:56;;;;;;;6.95;3.63;;;;;;;2.99;91.93;91261.06;5031695;28;20403;-85
2021/09/23 06:01:22;;;;;;;5.82;3.22;;;;;;;2.99;91.54;91256.66;5005912;28;20029;-85
2021/09/23 06:03:47;;;;;;;6.38;3.67;;;;;;;3.00;91.37;91257.44;5021458;28;20036;-86
2021/09/23 06:06:12;;;;;;;10.57;3.95;;;;;;;3.03;91.12;91257.66;5005944;28;20028;-86
2021/09/23 06:08:38;;;;;;;6.60;3.75;;;;;;;3.11;90.69;91259.66;5009460;28;20072;-86
2021/09/23 06:11:03;;;;;;;6.13;4.18;;;;;;;3.16;90.82;91248.53;5007447;28;20026;-86
2021/09/23 06:13:29;;;;;;;13.45;10.27;;;;;;;3.31;90.96;91250.91;5012459;28;20058;-86
2021/09/23 06:15:54;;;;;;;19.52;13.23;;;;;;;3.46;88.22;91249.22;5018570;28;20056;-86
2021/09/23 06:18:20;;;;;;;10.10;6.60;;;;;;;3.35;90.10;91246.75;5004873;28;20410;-86
2021/09/23 06:20:47;;;;;;;6.07;4.55;;;;;;;3.32;91.13;91238.81;5020200;28;20032;-85
2021/09/23 06:23:14;;;;;;;8.82;5.20;;;;;;;3.43;92.45;91239.44;5037025;28;20044;-86
2021/09/23 06:25:39;;;;;;;7.65;4.22;;;;;;;3.48;92.84;91236.81;5004579;28;20025;-85
2021/09/23 06:28:05;;;;;;;6.35;4.07;;;;;;;3.47;91.62;91248.94;5016997;28;20420;-85
2021/09/23 06:30:30;;;;;;;8.48;4.35;;;;;;;3.41;92.32;91249.28;5033974;28;20498;-86
2021/09/23 06:32:56;;;;;;;6.95;3.45;;;;;;;3.56;91.94;91249.84;5002627;28;20029;-85
2021/09/23 06:35:21;;;;;;;6.10;3.65;;;;;;;3.62;91.52;91240.25;5002811;28;20021;-86
2021/09/23 06:37:47;;;;;;;7.00;3.22;;;;;;;3.73;91.47;91228.78;5012784;28;20025;-87
2021/09/23 06:40:13;;;;;;;6.03;3.80;;;;;;;3.90;92.23;91235.25;4999652;28;20057;-85
2021/09/23 06:42:38;;;;;;;5.80;3.40;;;;;;;4.02;92.58;91230.44;5003111;28;20079;-85
2021/09/23 06:45:04;;;;;;;6.13;3.67;;;;;;;4.10;92.32;91226.44;5007626;28;20022;-86
2021/09/23 06:47:30;;;;;;;8.45;4.72;;;;;;;4.28;93.93;91226.44;4993739;28;20449;-86
2021/09/23 06:49:55;;;;;;;6.93;3.83;;;;;;;4.50;94.47;91220.69;5001750;28;20025;-86
2021/09/23 06:52:21;;;;;;;7.43;3.97;;;;;;;4.64;94.29;91212.22;5000804;28;20478;-86
2021/09/23 06:54:46;;;;;;;5.63;3.33;;;;;;;4.73;93.51;91219.00;5001320;28;20025;-86
2021/09/23 06:57:12;;;;;;;6.72;3.22;;;;;;;4.89;94.01;91213.59;5017706;28;20079;-87
2021/09/23 06:59:37;;;;;;;4.72;3.20;;;;;;;5.14;93.94;91215.72;5001763;28;20088;-85
2021/09/23 07:02:03;;;;;;;5.35;3.20;;;;;;;5.19;93.21;91212.25;5017909;28;20036;-86
2021/09/23 07:04:28;;;;;;;7.70;3.22;;;;;;;5.35;93.53;91217.91;5001416;28;20024;-86
2021/09/23 07:06:54;;;;;;;6.03;3.00;;;;;;;5.64;93.02;91210.59;5001249;28;20032;-86
2021/09/23 07:09:19;;;;;;;5.88;3.00;;;;;;;5.69;91.76;91226.03;5001092;28;20021;-86
2021/09/23 07:11:44;;;;;;;6.32;2.80;;;;;;;5.86;91.58;91220.22;5001263;28;20085;-87
2021/09/23 07:14:10;;;;;;;5.60;2.97;;;;;;;5.98;91.19;91215.34;5000705;28;20017;-87
2021/09/23 07:16:35;;;;;;;4.00;2.90;;;;;;;6.06;91.60;91210.53;5017658;28;20036;-88
2021/09/23 07:19:02;;;;;;;6.00;4.10;;;;;;;6.16;92.32;91220.66;5034073;28;20086;-86
2021/09/23 07:21:27;;;;;;;4.70;3.20;;;;;;;6.34;92.61;91211.19;5001735;28;20025;-87
2021/09/23 07:23:53;;;;;;;4.80;3.13;;;;;;;6.43;91.81;91212.00;5021068;28;20021;-87
2021/09/23 07:26:19;;;;;;;4.95;2.80;;;;;;;6.51;91.42;91206.13;5030395;28;20032;-84
2021/09/23 07:28:45;;;;;;;6.25;2.80;;;;;;;6.74;91.68;91213.88;5036769;28;20041;-86
2021/09/23 07:31:11;;;;;;;4.25;3.00;;;;;;;6.99;91.10;91215.81;5016618;28;20483;-85
2021/09/23 07:33:36;;;;;;;4.35;3.00;;;;;;;7.02;90.87;91215.22;5007941;28;20098;-84
2021/09/23 07:36:02;;;;;;;4.95;3.05;;;;;;;7.10;91.95;91219.72;5019325;28;20029;-85
2021/09/23 07:38:27;;;;;;;5.10;2.85;;;;;;;7.26;91.54;91225.25;5002198;28;20648;-86
2021/09/23 07:40:53;;;;;;;5.05;3.03;;;;;;;7.33;90.63;91220.38;5001430;28;20029;-86
2021/09/23 07:43:18;;;;;;;6.60;3.15;;;;;;;7.40;90.13;91227.75;5001044;28;20060;-87
2021/09/23 07:45:44;;;;;;;5.32;3.20;;;;;;;7.56;91.17;91212.50;4998071;28;20022;-85
2021/09/23 07:48:09;;;;;;;5.70;3.60;;;;;;;7.68;91.15;91214.53;5013647;28;20032;-85
2021/09/23 07:50:34;;;;;;;5.43;3.40;;;;;;;7.85;91.09;91199.78;4996190;28;20033;-85
2021/09/23 07:53:00;;;;;;;6.03;3.65;;;;;;;7.99;89.75;91209.25;5012897;28;20022;-86
2021/09/23 07:55:25;;;;;;;6.72;3.53;;;;;;;8.09;88.09;91209.72;4996263;28;20032;-85
2021/09/23 07:57:51;;;;;;;5.65;3.50;;;;;;;8.26;86.76;91208.94;5013633;28;20507;-85
2021/09/23 08:00:16;;;;;;;5.95;3.15;;;;;;;8.33;86.40;91203.28;5004030;28;20052;-85
2021/09/23 08:02:42;;;;;;;5.25;3.53;;;;;;;8.47;87.46;91206.50;5012893;28;20064;-85
2021/09/23 08:05:08;;;;;;;9.98;4.38;;;;;;;8.68;88.44;91204.03;4995900;28;20405;-85
2021/09/23 08:07:33;;;;;;;5.43;3.30;;;;;;;8.97;84.21;91205.94;5000738;28;20028;-86
2021/09/23 08:09:59;;;;;;;5.72;3.03;;;;;;;9.08;82.39;91201.19;5000013;28;20068;-86
2021/09/23 08:12:24;;;;;;;5.80;3.22;;;;;;;9.23;82.26;91212.94;4998406;28;20029;-86
2021/09/23 08:14:50;;;;;;;7.18;3.17;;;;;;;9.40;84.84;91210.25;5031272;28;20475;-87
2021/09/23 08:17:15;;;;;;;4.47;3.13;;;;;;;9.56;87.93;91218.28;4985708;28;20030;-85
2021/09/23 08:19:40;;;;;;;5.35;2.80;;;;;;;9.74;83.69;91224.16;5005648;28;20030;-87
2021/09/23 08:22:06;;;;;;;4.97;3.05;;;;;;;9.87;85.14;91225.78;5009289;28;20009;-88
2021/09/23 08:24:32;;;;;;;5.30;3.25;;;;;;;10.01;85.59;91215.88;5055841;28;20021;-88
2021/09/23 08:26:58;;;;;;;3.78;2.42;;;;;;;10.28;80.01;91219.09;5054810;28;20021;-87
2021/09/23 08:29:23;;;;;;;5.40;2.33;;;;;;;10.47;80.16;91222.03;5054154;28;20013;-86
2021/09/23 08:31:49;;;;;;;5.72;2.88;;;;;;;10.47;79.60;91222.03;5030562;28;20368;-86
2021/09/23 08:34:16;;;;;;;8.18;2.60;;;;;;;10.59;80.03;91223.16;5039761;28;20397;-85
2021/09/23 08:36:42;;;;;;;3.95;2.60;;;;;;;10.74;81.42;91225.94;5011500;28;20017;-86
2021/09/23 08:39:07;;;;;;;4.68;2.70;;;;;;;11.00;80.36;91217.88;5011283;28;20045;-86
2021/09/23 08:41:32;;;;;;;5.15;2.65;;;;;;;11.16;80.15;91220.59;5013355;28;20087;-85
2021/09/23 08:43:59;;;;;;;3.67;2.45;;;;;;;11.38;78.86;91224.69;5017271;28;20037;-86
2021/09/23 08:46:27;;;;;;;5.55;3.00;;;;;;;11.49;78.15;91232.84;5015800;28;20039;-86
2021/09/23 08:48:52;;;;;;;6.63;3.58;;;;;;;11.66;81.77;91239.69;5046671;28;20029;-86
2021/09/23 08:51:19;;;;;;;5.88;3.63;;;;;;;11.98;84.48;91238.09;5050543;28;20022;-86
2021/09/23 08:53:44;;;;;;;5.82;3.53;;;;;;;12.15;85.38;91247.53;5014757;28;20032;-85
2021/09/23 08:56:13;;;;;;;3.95;2.80;;;;;;;12.29;81.58;91250.56;5013984;28;20030;-85
2021/09/23 08:58:39;;;;;;;5.53;3.03;;;;;;;12.37;78.36;91254.16;5013618;28;20504;-84
2021/09/23 09:01:06;;;;;;;8.05;3.38;;;;;;;12.60;77.94;91257.03;5013991;28;20036;-86
2021/09/23 09:03:35;;;;;;;4.60;2.55;;;;;;;12.84;72.16;91251.72;5030229;28;20654;-85
2021/09/23 09:06:08;;;;;;;4.63;2.22;;;;;;;12.85;65.05;91258.47;5030504;28;20108;-86
2021/09/23 09:08:35;;;;;;;4.47;2.42;;;;;;;13.05;64.20;91256.75;5049306;28;20033;-86
2021/09/23 09:11:08;;;;;;;9.23;3.30;;;;;;;13.30;59.78;91260.03;5030444;28;20548;-85
2021/09/23 09:13:37;;;;;;;6.90;3.70;;;;;;;13.64;61.92;91252.66;5013835;28;20445;-86
2021/09/23 09:16:11;;;;;;;7.00;3.47;;;;;;;13.78;61.43;91255.59;5001383;28;20029;-86
2021/09/23 09:18:36;;;;;;;5.75;3.13;;;;;;;13.84;55.43;91254.22;5010359;28;20037;-87
2021/09/23 09:21:09;;;;;;;4.80;2.70;;;;;;;13.99;56.24;91249.31;4994424;28;20034;-86
2021/09/23 09:23:48;;;;;;;4.82;2.60;;;;;;;13.90;56.58;91251.38;5026248;28;20025;-86
2021/09/23 09:26:22;;;;;;;4.22;2.60;;;;;;;13.80;52.69;91253.41;5026570;28;20105;-87
2021/09/23 09:28:50;;;;;;;4.57;2.45;;;;;;;13.94;51.38;91245.09;4994125;28;20030;-86
2021/09/23 09:31:15;;;;;;;5.25;2.20;;;;;;;14.04;50.74;91241.97;4994391;28;20025;-87
2021/09/23 09:33:42;;;;;;;5.13;2.30;;;;;;;14.17;49.42;91247.88;5009950;28;20022;-86
2021/09/23 09:36:28;;;;;;;4.70;2.20;;;;;;;14.22;51.13;91258.09;4993896;28;20103;-86
2021/09/23 09:38:54;;;;;;;3.33;2.00;;;;;;;14.23;47.80;91249.13;5011433;28;20021;-86
2021/09/23 09:41:30;;;;;;;4.85;2.20;;;;;;;14.42;45.29;91260.75;5030292;23;20018;-88
2021/09/23 09:43:56;;;;;;;3.45;2.20;;;;;;;14.45;47.86;91260.84;5051155;28;20506;-89
2021/09/23 09:46:26;;;;;;;4.72;2.05;;;;;;;14.46;45.37;91262.34;5017641;28;20021;-88
2021/09/23 09:48:53;;;;;;;4.85;2.00;;;;;;;14.47;45.29;91263.88;5017965;28;20017;-88
2021/09/23 09:51:22;;;;;;;4.78;2.05;;;;;;;14.65;47.29;91256.38;5021036;28;20021;-87
2021/09/23 09:53:58;;;;;;;3.22;2.08;;;;;;;14.66;44.87;91250.03;5037049;28;20027;-89
2021/09/23 09:56:24;;;;;;;4.25;2.70;;;;;;;14.79;41.90;91254.03;5070466;28;20021;-88
2021/09/23 09:59:10;;;;;;;5.93;2.78;;;;;;;14.77;42.43;91242.38;5036975;28;20028;-86
2021/09/23 10:01:35;;;;;;;4.70;2.78;;;;;;;14.75;44.94;91247.97;5070502;28;20020;-89
2021/09/23 10:04:01;;;;;;;4.75;2.70;;;;;;;14.82;46.08;91250.75;5053225;28;20017;-88
2021/09/23 10:06:26;;;;;;;7.20;3.80;;;;;;;15.00;48.80;91253.69;5053848;28;20032;-89
2021/09/23 10:08:52;;;;;;;5.47;3.15;;;;;;;15.12;45.48;91252.78;5053820;28;20021;-88
2021/09/23 10:11:17;;;;;;;3.58;2.35;;;;;;;15.02;44.22;91248.13;5053623;28;20485;-87
2021/09/23 10:13:42;;;;;;;3.40;1.90;;;;;;;15.06;46.45;91251.56;5036888;28;20393;-87
2021/09/23 10:16:08;;;;;;;4.32;2.50;;;;;;;15.13;46.43;91246.44;5040711;28;20029;-88
2021/09/23 10:18:33;;;;;;;4.88;2.50;;;;;;;15.22;46.98;91233.84;5017103;28;20025;-89
2021/09/23 10:20:59;;;;;;;4.35;2.45;;;;;;;15.48;50.13;91233.19;5033603;28;20021;-87
2021/09/23 10:23:28;;;;;;;2.92;2.08;;;;;;;15.77;52.64;91226.56;5017273;28;20021;-89
2021/09/23 10:25:54;;;;;;;3.70;2.22;;;;;;;15.72;49.85;91218.19;5017603;28;20024;-89
2021/09/23 10:28:19;;;;;;;3.50;2.40;;;;;;;15.77;47.71;91213.41;5036616;28;20090;-89
2021/09/23 10:30:45;;;;;;;3.50;2.40;;;;;;;15.92;49.88;91211.00;5020836;28;20051;-89
2021/09/23 10:33:10;;;;;;;5.85;2.75;;;;;;;16.07;50.57;91202.22;5037092;28;20032;-89
2021/09/23 10:35:36;;;;;;;5.03;2.80;;;;;;;16.11;47.72;91213.53;5020659;28;20033;-89
2021/09/23 10:38:07;;;;;;;4.55;2.42;;;;;;;16.18;48.63;91202.34;5037466;28;20025;-89
2021/09/23 10:40:34;;;;;;;4.53;2.45;;;;;;;16.61;51.73;91203.69;5037583;28;20443;-88
2021/09/23 10:43:05;;;;;;;4.43;2.65;;;;;;;16.71;49.53;91197.81;5020800;28;20028;-89
2021/09/23 10:45:30;;;;;;;5.80;2.90;;;;;;;16.75;50.96;91197.88;5021089;28;20078;-88
2021/09/23 10:47:59;;;;;;;5.30;2.92;;;;;;;16.83;45.27;91201.34;5020228;28;20033;-89
2021/09/23 10:50:27;;;;;;;5.20;2.70;;;;;;;16.87;48.42;91196.88;5020958;28;20502;-89
2021/09/23 10:52:53;;;;;;;5.40;3.47;;;;;;;16.98;50.29;91195.09;5036762;28;20107;-86
2021/09/23 10:55:19;;;;;;;5.10;2.90;;;;;;;17.20;46.76;91196.06;5019817;28;20049;-89
2021/09/23 10:57:44;;;;;;;4.63;2.90;;;;;;;17.04;40.46;91203.44;5020204;28;20068;-89
2021/09/23 11:00:10;;;;;;;6.82;2.80;;;;;;;17.01;44.23;91194.38;5036702;28;20032;-89
2021/09/23 11:02:35;;;;;;;8.32;3.50;;;;;;;17.01;43.39;91198.91;5036715;28;20025;-89
2021/09/23 11:05:05;;;;;;;6.00;3.58;;;;;;;17.00;40.71;91202.66;5019951;28;20025;-89
2021/09/23 11:07:30;;;;;;;8.20;4.43;;;;;;;17.10;46.37;91202.78;5020601;28;20486;-89
2021/09/23 11:10:19;;;;;;;10.82;5.82;;;;;;;17.07;40.79;91218.53;5019943;28;20040;-89
2021/09/23 11:12:48;;;;;;;6.97;3.60;;;;;;;16.86;40.42;91208.53;5036535;28;20044;-89
2021/09/23 11:15:14;;;;;;;7.60;3.53;;;;;;;17.06;38.54;91214.38;5041976;28;20028;-89
2021/09/23 11:17:40;;;;;;;4.63;2.85;;;;;;;17.00;36.61;91208.69;5039751;28;20111;-89
2021/09/23 11:20:08;;;;;;;6.55;2.67;;;;;;;17.12;36.95;91203.16;5056589;28;20059;-88
2021/09/23 11:22:36;;;;;;;8.15;4.82;;;;;;;17.04;34.45;91203.44;5056472;28;20479;-88
2021/09/23 11:25:03;;;;;;;10.05;5.85;;;;;;;16.98;36.44;91210.16;5036361;28;20488;-87
2021/09/23 11:27:29;;;;;;;13.13;7.22;;;;;;;17.05;34.71;91210.97;5019761;28;20032;-88
2021/09/23 11:29:54;;;;;;;13.02;7.25;;;;;;;17.11;33.92;91206.16;5020076;28;20021;-88
2021/09/23 11:32:20;;;;;;;9.52;5.65;;;;;;;16.96;34.17;91211.28;5019826;28;20036;-90
2021/09/23 11:34:45;;;;;;;7.05;4.32;;;;;;;16.98;34.80;91194.34;5019792;28;20372;-90